Terminal Aerodrome Forecast
Issued by NWS

Home | Current Version | Previous Version | Text Only | Print | Product List | Glossary On
Versions: 1 2 3 4 5 6 7 8 9 10 11 12 13 14 15 16 17 18
000
FTUS42 KRAH 241303 AAA
TAFRWI
TAF AMD
KRWI 241303Z 2413/2512 00000KT 3SM BR SCT015
      TEMPO 2413/2414 1/4SM FG VV002
     FM241600 15005KT P6SM BKN040
      TEMPO 2509/2512 3SM BR BKN005=

USA.gov is the U.S. government's official web portal to all federal, state and local government web resources and services.